WMT2DN LIBD-LROP
Flight info
| Callsign | WMT2DN |
|---|---|
| Flight time | N/A |
| Altitude | 35000 |
| Route | BANAV DCT AIOSA DCT MOKUN DCT VELIP DCT TOSVI |
| Aircraft | A21N/M-SDE2E3FGHIRWXY/LB1 |
Departure
| Time | 2026-05-09 16:24 |
|---|---|
| Airport | Bari Karol Wojtyła International Airport (LIBD) |
Arrival
| Time | N/A |
|---|---|
| Airport | Bucharest Henri Coandă International Airport (LROP) |
| Time | Latitude | Longitude | Altitude | Speed | Heading |
|---|---|---|---|---|---|
| 2026-05-09 15:33 | 41.13715 | 16.76772 | 133 ft | 0 kts | 205° |
| 2026-05-09 16:17 | 41.13709 | 16.76763 | 133 ft | 3 kts | 237° |
| 2026-05-09 16:18 | 41.13713 | 16.76720 | 135 ft | 6 kts | 298° |
| 2026-05-09 16:18 | 41.13754 | 16.76731 | 133 ft | 8 kts | 47° |
| 2026-05-09 16:18 | 41.13799 | 16.76774 | 132 ft | 9 kts | 2° |
| 2026-05-09 16:18 | 41.13848 | 16.76723 | 132 ft | 11 kts | 276° |
| 2026-05-09 16:19 | 41.13823 | 16.76618 | 134 ft | 13 kts | 249° |
| 2026-05-09 16:19 | 41.13789 | 16.76497 | 135 ft | 15 kts | 249° |
| 2026-05-09 16:19 | 41.13749 | 16.76360 | 136 ft | 17 kts | 249° |
| 2026-05-09 16:19 | 41.13706 | 16.76209 | 138 ft | 18 kts | 250° |
| 2026-05-09 16:20 | 41.13660 | 16.76043 | 141 ft | 20 kts | 249° |
| 2026-05-09 16:20 | 41.13610 | 16.75865 | 140 ft | 21 kts | 249° |
| 2026-05-09 16:20 | 41.13555 | 16.75678 | 141 ft | 22 kts | 249° |
| 2026-05-09 16:20 | 41.13499 | 16.75479 | 143 ft | 24 kts | 250° |
| 2026-05-09 16:21 | 41.13441 | 16.75269 | 144 ft | 25 kts | 249° |
| 2026-05-09 16:21 | 41.13382 | 16.75066 | 146 ft | 14 kts | 248° |
| 2026-05-09 16:21 | 41.13355 | 16.74957 | 153 ft | 14 kts | 243° |
| 2026-05-09 16:21 | 41.13317 | 16.74833 | 153 ft | 15 kts | 249° |
| 2026-05-09 16:22 | 41.13276 | 16.74688 | 149 ft | 16 kts | 249° |
| 2026-05-09 16:22 | 41.13234 | 16.74544 | 150 ft | 17 kts | 249° |
| 2026-05-09 16:22 | 41.13189 | 16.74386 | 152 ft | 19 kts | 249° |
| 2026-05-09 16:22 | 41.13173 | 16.74220 | 153 ft | 19 kts | 304° |
| 2026-05-09 16:23 | 41.13238 | 16.74119 | 152 ft | 15 kts | 337° |
| 2026-05-09 16:23 | 41.13307 | 16.74143 | 152 ft | 10 kts | 59° |
| 2026-05-09 16:23 | 41.13347 | 16.74274 | 152 ft | 35 kts | 69° |
| 2026-05-09 16:23 | 41.13531 | 16.74919 | 145 ft | 113 kts | 69° |
| 2026-05-09 16:24 | 41.13876 | 16.76165 | 159 ft | 168 kts | 68° |
| 2026-05-09 16:24 | 41.14277 | 16.77617 | 799 ft | 164 kts | 68° |
| 2026-05-09 16:24 | 41.14672 | 16.79034 | 1533 ft | 164 kts | 67° |
| 2026-05-09 16:24 | 41.15073 | 16.80458 | 2145 ft | 169 kts | 67° |
| 2026-05-09 16:25 | 41.15519 | 16.82005 | 2498 ft | 190 kts | 66° |
| 2026-05-09 16:25 | 41.15845 | 16.83120 | 2817 ft | 201 kts | 66° |
| 2026-05-09 16:25 | 41.16538 | 16.85526 | 3630 ft | 216 kts | 68° |
| 2026-05-09 16:25 | 41.17076 | 16.87490 | 4055 ft | 239 kts | 69° |
| 2026-05-09 16:26 | 41.17700 | 16.89599 | 4597 ft | 255 kts | 62° |
| 2026-05-09 16:26 | 41.18785 | 16.91439 | 5379 ft | 256 kts | 35° |
| 2026-05-09 16:26 | 41.20414 | 16.92415 | 6029 ft | 264 kts | 9° |
| 2026-05-09 16:26 | 41.22266 | 16.92286 | 6675 ft | 271 kts | 345° |
| 2026-05-09 16:27 | 41.24068 | 16.91580 | 7603 ft | 268 kts | 342° |
| 2026-05-09 16:27 | 41.25867 | 16.90864 | 8447 ft | 271 kts | 342° |
| 2026-05-09 16:27 | 41.27697 | 16.90169 | 9212 ft | 276 kts | 343° |
| 2026-05-09 16:27 | 41.29558 | 16.89476 | 9997 ft | 280 kts | 343° |
| 2026-05-09 16:28 | 41.31469 | 16.88764 | 10492 ft | 294 kts | 342° |
| 2026-05-09 16:28 | 41.33508 | 16.88005 | 10783 ft | 314 kts | 342° |
| 2026-05-09 16:28 | 41.35688 | 16.87230 | 11052 ft | 334 kts | 345° |
| 2026-05-09 16:28 | 41.38077 | 16.86907 | 11285 ft | 357 kts | 360° |
| 2026-05-09 16:29 | 41.39734 | 16.87195 | 11446 ft | 372 kts | 11° |
| 2026-05-09 16:29 | 41.42232 | 16.88286 | 11955 ft | 382 kts | 18° |
| 2026-05-09 16:29 | 41.44742 | 16.89547 | 12605 ft | 386 kts | 18° |
| 2026-05-09 16:29 | 41.47263 | 16.90808 | 13264 ft | 390 kts | 17° |
| 2026-05-09 16:30 | 41.49827 | 16.92063 | 13916 ft | 393 kts | 17° |
| 2026-05-09 16:30 | 41.52411 | 16.93307 | 14486 ft | 396 kts | 15° |
| 2026-05-09 16:30 | 41.55056 | 16.94377 | 15050 ft | 398 kts | 12° |
| 2026-05-09 16:30 | 41.57735 | 16.95392 | 15633 ft | 402 kts | 12° |
| 2026-05-09 16:31 | 41.60437 | 16.96415 | 16212 ft | 405 kts | 12° |
| 2026-05-09 16:31 | 41.63163 | 16.97447 | 16791 ft | 409 kts | 12° |
| 2026-05-09 16:31 | 41.65913 | 16.98494 | 17371 ft | 413 kts | 11° |
| 2026-05-09 16:31 | 41.68690 | 16.99543 | 17947 ft | 416 kts | 11° |
| 2026-05-09 16:32 | 41.71469 | 17.00729 | 18485 ft | 424 kts | 17° |
| 2026-05-09 16:32 | 41.74062 | 17.02596 | 18972 ft | 434 kts | 30° |
| 2026-05-09 16:32 | 41.76416 | 17.05187 | 19497 ft | 441 kts | 37° |
| 2026-05-09 16:32 | 41.78695 | 17.07937 | 20020 ft | 443 kts | 37° |
| 2026-05-09 16:33 | 41.80995 | 17.10714 | 20524 ft | 446 kts | 37° |
| 2026-05-09 16:33 | 41.83309 | 17.13485 | 20988 ft | 449 kts | 37° |
| 2026-05-09 16:33 | 41.85645 | 17.16284 | 21450 ft | 452 kts | 37° |
| 2026-05-09 16:33 | 41.88009 | 17.19103 | 21906 ft | 455 kts | 37° |
| 2026-05-09 16:34 | 41.90385 | 17.21935 | 22369 ft | 459 kts | 37° |
| 2026-05-09 16:34 | 41.92653 | 17.24998 | 22838 ft | 468 kts | 45° |
| 2026-05-09 16:34 | 41.94515 | 17.28630 | 23296 ft | 477 kts | 54° |
| 2026-05-09 16:34 | 41.96188 | 17.32514 | 23725 ft | 481 kts | 56° |
| 2026-05-09 16:35 | 41.97843 | 17.36432 | 24072 ft | 484 kts | 56° |
| 2026-05-09 16:35 | 41.99520 | 17.40371 | 24434 ft | 487 kts | 56° |
| 2026-05-09 16:35 | 42.01224 | 17.44333 | 24819 ft | 489 kts | 55° |
| 2026-05-09 16:35 | 42.02936 | 17.48297 | 25179 ft | 492 kts | 55° |
| 2026-05-09 16:36 | 42.04656 | 17.52295 | 25512 ft | 495 kts | 55° |
| 2026-05-09 16:36 | 42.09834 | 17.64399 | 26668 ft | 499 kts | 55° |
| 2026-05-09 16:37 | 42.11563 | 17.68459 | 27093 ft | 500 kts | 55° |
| 2026-05-09 16:37 | 42.13290 | 17.72522 | 27519 ft | 499 kts | 55° |
| 2026-05-09 16:37 | 42.15018 | 17.76581 | 27941 ft | 499 kts | 55° |
| 2026-05-09 16:37 | 42.16743 | 17.80636 | 28380 ft | 498 kts | 55° |
| 2026-05-09 16:38 | 42.18468 | 17.84691 | 28787 ft | 499 kts | 55° |
| 2026-05-09 16:38 | 42.20188 | 17.88754 | 29183 ft | 499 kts | 55° |
| 2026-05-09 16:38 | 42.21911 | 17.92830 | 29595 ft | 499 kts | 55° |
| 2026-05-09 16:38 | 42.23629 | 17.96902 | 29967 ft | 499 kts | 54° |
| 2026-05-09 16:39 | 42.25349 | 18.00974 | 30298 ft | 500 kts | 54° |
| 2026-05-09 16:39 | 42.27070 | 18.05063 | 30598 ft | 500 kts | 54° |
| 2026-05-09 16:39 | 42.28782 | 18.09138 | 30888 ft | 500 kts | 54° |
| 2026-05-09 16:39 | 42.30501 | 18.13225 | 31175 ft | 501 kts | 54° |
| 2026-05-09 16:40 | 42.32219 | 18.17318 | 31458 ft | 501 kts | 54° |
| 2026-05-09 16:40 | 42.33937 | 18.21416 | 31747 ft | 501 kts | 54° |
| 2026-05-09 16:42 | 42.46353 | 18.49700 | 33567 ft | 484 kts | 37° |
| 2026-05-09 16:42 | 42.48780 | 18.52815 | 33827 ft | 479 kts | 33° |
| 2026-05-09 16:42 | 42.51252 | 18.55844 | 34086 ft | 479 kts | 33° |
| 2026-05-09 16:42 | 42.53719 | 18.58873 | 34306 ft | 478 kts | 33° |
| 2026-05-09 16:43 | 42.56144 | 18.61882 | 34510 ft | 478 kts | 34° |
| 2026-05-09 16:43 | 42.58587 | 18.64933 | 34702 ft | 477 kts | 34° |
| 2026-05-09 16:43 | 42.61021 | 18.67980 | 34868 ft | 476 kts | 34° |
| 2026-05-09 16:43 | 42.63451 | 18.71031 | 35027 ft | 476 kts | 34° |
| 2026-05-09 16:44 | 42.68317 | 18.77149 | 35133 ft | 476 kts | 34° |
| 2026-05-09 16:44 | 42.73160 | 18.83244 | 35096 ft | 474 kts | 34° |
| 2026-05-09 16:45 | 42.78007 | 18.89356 | 35085 ft | 474 kts | 34° |
| 2026-05-09 16:45 | 42.82839 | 18.95468 | 35108 ft | 474 kts | 34° |
| 2026-05-09 16:46 | 42.87666 | 19.01617 | 35103 ft | 474 kts | 34° |
| 2026-05-09 16:46 | 42.92461 | 19.07728 | 35098 ft | 474 kts | 34° |
| 2026-05-09 16:47 | 42.97282 | 19.13867 | 35114 ft | 473 kts | 34° |
| 2026-05-09 16:47 | 43.02091 | 19.19990 | 35119 ft | 472 kts | 33° |
| 2026-05-09 16:48 | 43.06892 | 19.26130 | 35108 ft | 472 kts | 34° |
| 2026-05-09 16:48 | 43.11694 | 19.32271 | 35109 ft | 472 kts | 33° |
| 2026-05-09 16:49 | 43.16493 | 19.38424 | 35111 ft | 472 kts | 34° |
| 2026-05-09 16:50 | 43.23673 | 19.47664 | 35114 ft | 471 kts | 34° |
| 2026-05-09 16:50 | 43.28412 | 19.53782 | 35105 ft | 470 kts | 34° |
| 2026-05-09 16:51 | 43.33166 | 19.59958 | 35092 ft | 470 kts | 34° |
| 2026-05-09 16:51 | 43.37920 | 19.66141 | 35107 ft | 471 kts | 34° |
| 2026-05-09 16:52 | 43.42680 | 19.72334 | 35106 ft | 470 kts | 34° |
| 2026-05-09 16:52 | 43.47426 | 19.78511 | 35128 ft | 470 kts | 34° |
| 2026-05-09 16:53 | 43.52169 | 19.84690 | 35101 ft | 469 kts | 34° |
| 2026-05-09 16:53 | 43.56906 | 19.90888 | 35112 ft | 469 kts | 34° |
| 2026-05-09 16:54 | 43.61635 | 19.97096 | 35133 ft | 469 kts | 34° |
| 2026-05-09 16:54 | 43.66360 | 20.03308 | 35102 ft | 469 kts | 34° |
| 2026-05-09 16:55 | 43.71079 | 20.09535 | 35097 ft | 469 kts | 34° |
| 2026-05-09 16:55 | 43.75793 | 20.15771 | 35099 ft | 469 kts | 34° |
| 2026-05-09 16:56 | 43.80495 | 20.22020 | 35108 ft | 467 kts | 34° |
| 2026-05-09 16:56 | 43.85143 | 20.28202 | 35099 ft | 466 kts | 34° |
| 2026-05-09 16:57 | 43.89826 | 20.34431 | 35100 ft | 466 kts | 34° |
| 2026-05-09 16:57 | 43.94510 | 20.40682 | 35118 ft | 466 kts | 34° |
| 2026-05-09 16:58 | 43.99178 | 20.46937 | 35104 ft | 466 kts | 34° |
| 2026-05-09 16:58 | 44.03852 | 20.53205 | 35098 ft | 466 kts | 34° |
| 2026-05-09 16:59 | 44.08521 | 20.59475 | 35109 ft | 466 kts | 34° |
| 2026-05-09 16:59 | 44.13177 | 20.65750 | 35073 ft | 466 kts | 34° |
| 2026-05-09 17:00 | 44.17844 | 20.72031 | 35073 ft | 466 kts | 34° |
| 2026-05-09 17:00 | 44.22484 | 20.78257 | 35071 ft | 466 kts | 34° |
| 2026-05-09 17:01 | 44.27141 | 20.84561 | 35070 ft | 467 kts | 35° |
| 2026-05-09 17:01 | 44.31796 | 20.90885 | 35058 ft | 467 kts | 35° |
| 2026-05-09 17:02 | 44.36453 | 20.97229 | 35055 ft | 467 kts | 35° |
| 2026-05-09 17:02 | 44.41103 | 21.03575 | 35072 ft | 467 kts | 37° |
| 2026-05-09 17:03 | 44.45770 | 21.09973 | 35058 ft | 469 kts | 39° |
| 2026-05-09 17:05 | 44.64409 | 21.35629 | 35052 ft | 470 kts | 40° |
| 2026-05-09 17:05 | 44.69077 | 21.42089 | 35044 ft | 470 kts | 40° |
| 2026-05-09 17:06 | 44.73635 | 21.48617 | 35040 ft | 473 kts | 46° |
| 2026-05-09 17:06 | 44.75485 | 21.52477 | 35037 ft | 480 kts | 59° |
| 2026-05-09 17:06 | 44.76754 | 21.56898 | 35047 ft | 485 kts | 72° |
| 2026-05-09 17:06 | 44.77315 | 21.61536 | 35057 ft | 489 kts | 85° |
| 2026-05-09 17:07 | 44.77393 | 21.66321 | 35066 ft | 489 kts | 89° |
| 2026-05-09 17:07 | 44.77399 | 21.75901 | 35044 ft | 489 kts | 89° |
| 2026-05-09 17:08 | 44.77448 | 21.85465 | 35035 ft | 488 kts | 88° |
| 2026-05-09 17:08 | 44.77550 | 21.99799 | 35045 ft | 489 kts | 88° |
| 2026-05-09 17:09 | 44.77609 | 22.09365 | 35041 ft | 489 kts | 88° |
| 2026-05-09 17:09 | 44.77670 | 22.18930 | 35049 ft | 485 kts | 89° |
| 2026-05-09 17:10 | 44.77707 | 22.26782 | 35034 ft | 481 kts | 89° |
| 2026-05-09 17:10 | 44.77740 | 22.36199 | 35032 ft | 481 kts | 89° |
| 2026-05-09 17:11 | 44.77774 | 22.45628 | 35041 ft | 481 kts | 89° |
| 2026-05-09 17:11 | 44.77801 | 22.55053 | 35051 ft | 481 kts | 89° |
| 2026-05-09 17:12 | 44.77823 | 22.64462 | 35040 ft | 479 kts | 89° |
| 2026-05-09 17:12 | 44.77838 | 22.73853 | 35039 ft | 479 kts | 89° |
| 2026-05-09 17:13 | 44.77841 | 22.83192 | 35039 ft | 479 kts | 90° |
| 2026-05-09 17:13 | 44.77834 | 22.92578 | 35041 ft | 479 kts | 90° |
| 2026-05-09 17:14 | 44.77793 | 23.01975 | 35044 ft | 479 kts | 90° |
| 2026-05-09 17:14 | 44.77770 | 23.11357 | 35043 ft | 479 kts | 90° |
| 2026-05-09 17:15 | 44.77750 | 23.20736 | 35042 ft | 479 kts | 90° |
| 2026-05-09 17:15 | 44.77731 | 23.30099 | 35050 ft | 478 kts | 90° |
| 2026-05-09 17:17 | 44.76875 | 23.67420 | 35034 ft | 477 kts | 90° |
| 2026-05-09 17:18 | 44.76808 | 23.76761 | 35043 ft | 477 kts | 90° |
| 2026-05-09 17:18 | 44.77089 | 23.86103 | 35048 ft | 477 kts | 86° |
| 2026-05-09 17:19 | 44.77258 | 23.95442 | 35045 ft | 478 kts | 90° |
| 2026-05-09 17:19 | 44.77173 | 24.04806 | 35046 ft | 478 kts | 90° |
| 2026-05-09 17:20 | 44.77057 | 24.14169 | 35037 ft | 478 kts | 90° |
| 2026-05-09 17:20 | 44.76942 | 24.23504 | 34750 ft | 475 kts | 90° |
| 2026-05-09 17:21 | 44.76882 | 24.28180 | 33347 ft | 483 kts | 90° |
| 2026-05-09 17:21 | 44.76820 | 24.32937 | 32235 ft | 487 kts | 90° |
| 2026-05-09 17:21 | 44.76755 | 24.37698 | 31315 ft | 486 kts | 90° |
| 2026-05-09 17:21 | 44.76688 | 24.42454 | 30396 ft | 486 kts | 90° |
| 2026-05-09 17:22 | 44.76619 | 24.47213 | 29333 ft | 485 kts | 90° |
| 2026-05-09 17:22 | 44.76548 | 24.51967 | 28128 ft | 486 kts | 90° |
| 2026-05-09 17:22 | 44.76476 | 24.56712 | 26792 ft | 486 kts | 90° |
| 2026-05-09 17:22 | 44.76401 | 24.61482 | 25294 ft | 486 kts | 90° |
| 2026-05-09 17:23 | 44.76324 | 24.66215 | 24107 ft | 482 kts | 90° |
| 2026-05-09 17:23 | 44.76245 | 24.70900 | 22904 ft | 475 kts | 90° |
| 2026-05-09 17:23 | 44.76167 | 24.75494 | 21786 ft | 465 kts | 90° |
| 2026-05-09 17:23 | 44.76088 | 24.80008 | 20604 ft | 456 kts | 90° |
| 2026-05-09 17:25 | 44.75108 | 25.01496 | 16364 ft | 422 kts | 88° |
| 2026-05-09 17:25 | 44.75427 | 25.05537 | 15691 ft | 413 kts | 79° |
| 2026-05-09 17:25 | 44.75763 | 25.09520 | 15054 ft | 405 kts | 83° |
| 2026-05-09 17:25 | 44.75899 | 25.13443 | 14396 ft | 400 kts | 87° |
| 2026-05-09 17:26 | 44.75697 | 25.17319 | 13862 ft | 394 kts | 99° |
| 2026-05-09 17:26 | 44.75072 | 25.21046 | 13519 ft | 390 kts | 102° |
| 2026-05-09 17:26 | 44.74430 | 25.24730 | 13233 ft | 389 kts | 101° |
| 2026-05-09 17:26 | 44.73817 | 25.28453 | 12960 ft | 387 kts | 100° |
| 2026-05-09 17:27 | 44.73229 | 25.32152 | 12695 ft | 384 kts | 101° |
| 2026-05-09 17:27 | 44.72602 | 25.35682 | 12410 ft | 366 kts | 102° |
| 2026-05-09 17:27 | 44.72002 | 25.39051 | 12113 ft | 345 kts | 101° |
| 2026-05-09 17:27 | 44.71468 | 25.42238 | 11838 ft | 325 kts | 101° |
| 2026-05-09 17:28 | 44.70801 | 25.45178 | 11540 ft | 310 kts | 116° |
| 2026-05-09 17:28 | 44.69478 | 25.47502 | 11167 ft | 302 kts | 140° |
| 2026-05-09 17:28 | 44.67660 | 25.48848 | 10912 ft | 292 kts | 162° |
| 2026-05-09 17:28 | 44.65703 | 25.49362 | 10643 ft | 283 kts | 179° |
| 2026-05-09 17:29 | 44.63771 | 25.48928 | 10202 ft | 282 kts | 202° |
| 2026-05-09 17:29 | 44.62093 | 25.47559 | 9771 ft | 279 kts | 220° |
| 2026-05-09 17:29 | 44.60459 | 25.46119 | 9324 ft | 280 kts | 199° |
| 2026-05-09 17:29 | 44.58541 | 25.45902 | 8796 ft | 279 kts | 171° |
| 2026-05-09 17:30 | 44.56639 | 25.46372 | 8222 ft | 276 kts | 168° |
| 2026-05-09 17:30 | 44.54765 | 25.46883 | 7653 ft | 272 kts | 164° |
| 2026-05-09 17:30 | 44.53078 | 25.47976 | 7071 ft | 265 kts | 137° |
| 2026-05-09 17:30 | 44.52051 | 25.50022 | 6631 ft | 256 kts | 104° |
| 2026-05-09 17:31 | 44.51933 | 25.52452 | 6193 ft | 248 kts | 82° |
| 2026-05-09 17:31 | 44.52122 | 25.54844 | 5774 ft | 246 kts | 81° |
| 2026-05-09 17:32 | 44.53007 | 25.64052 | 4519 ft | 222 kts | 81° |
| 2026-05-09 17:32 | 44.53212 | 25.66173 | 4190 ft | 218 kts | 78° |
| 2026-05-09 17:32 | 44.53450 | 25.68230 | 3818 ft | 216 kts | 82° |
| 2026-05-09 17:33 | 44.53620 | 25.70324 | 3511 ft | 216 kts | 82° |
| 2026-05-09 17:33 | 44.53782 | 25.72420 | 3349 ft | 216 kts | 82° |
| 2026-05-09 17:33 | 44.53944 | 25.74541 | 3209 ft | 216 kts | 83° |
| 2026-05-09 17:33 | 44.54100 | 25.76593 | 3081 ft | 215 kts | 83° |
| 2026-05-09 17:34 | 44.54258 | 25.78673 | 2965 ft | 214 kts | 83° |
| 2026-05-09 17:35 | 44.55189 | 25.90933 | 2449 ft | 191 kts | 83° |
| 2026-05-09 17:35 | 44.55325 | 25.92720 | 2291 ft | 177 kts | 83° |
| 2026-05-09 17:36 | 44.55450 | 25.94378 | 2065 ft | 165 kts | 83° |
| 2026-05-09 17:36 | 44.55567 | 25.95922 | 1859 ft | 151 kts | 82° |
| 2026-05-09 17:36 | 44.55669 | 25.97278 | 1650 ft | 132 kts | 82° |
| 2026-05-09 17:36 | 44.55766 | 25.98555 | 1475 ft | 132 kts | 82° |
| 2026-05-09 17:37 | 44.55863 | 25.99831 | 1325 ft | 132 kts | 82° |
| 2026-05-09 17:37 | 44.55960 | 26.01112 | 1166 ft | 133 kts | 83° |